Terminal Aerodrome Forecast
Issued by NWS

Home | Current Version | Previous Version | Text Only | Print | Product List | Glossary On
Versions: 1 2 3 4 5 6 7 8 9 10 11 12
766
FTUS44 KEPZ 201725
TAFTCS
TAF
KTCS 201725Z 2018/2118 15005KT P6SM BKN110 BKN250
     FM201900 18009G17KT P6SM VCTS SCT050CB BKN100
      TEMPO 2019/2023 VRB25G40KT 4SM TSRA BKN040CB OVC070
     FM210100 24011G19KT P6SM VCTS SCT050CB BKN100
      TEMPO 2102/2106 VRB20G30KT TS BKN050CB
     FM210600 28005KT P6SM SCT050 OVC250
     FM211200 31004KT P6SM SCT060=

USA.gov is the U.S. government's official web portal to all federal, state and local government web resources and services.